createdAt,value
2022-12-09T00:00:39.305Z,15.10
2022-12-09T00:03:06.299Z,14.48
2022-12-09T00:05:33.297Z,14.45
2022-12-09T00:08:00.323Z,14.68
2022-12-09T00:10:27.286Z,15.65
2022-12-09T00:12:56.215Z,16.00
2022-12-09T00:15:23.578Z,14.77
2022-12-09T00:17:50.460Z,15.93
2022-12-09T00:20:20.567Z,13.52
2022-12-09T00:22:47.420Z,14.82
2022-12-09T00:25:14.350Z,12.88
2022-12-09T00:27:41.095Z,13.00
2022-12-09T00:30:08.943Z,15.57
2022-12-09T00:32:35.986Z,18.00
2022-12-09T00:35:04.801Z,15.80
2022-12-09T00:37:33.296Z,17.73
2022-12-09T00:40:00.471Z,15.32
2022-12-09T00:42:27.357Z,15.30
2022-12-09T00:44:54.236Z,17.90
2022-12-09T00:47:21.061Z,13.82
2022-12-09T00:49:48.177Z,18.67
2022-12-09T00:52:15.053Z,19.77
2022-12-09T00:54:42.147Z,16.60
2022-12-09T00:57:09.278Z,17.08
2022-12-09T00:59:36.097Z,18.23
2022-12-09T01:02:03.149Z,18.55
2022-12-09T01:04:30.519Z,14.73
2022-12-09T01:06:57.656Z,18.65
2022-12-09T01:09:28.035Z,17.13
2022-12-09T01:11:54.892Z,15.63
2022-12-09T01:14:21.947Z,17.13
2022-12-09T01:16:49.191Z,17.52
2022-12-09T01:19:16.805Z,17.33
2022-12-09T01:21:43.745Z,16.98
2022-12-09T01:24:11.749Z,17.80
2022-12-09T01:26:39.297Z,14.02
2022-12-09T01:29:06.292Z,17.00
2022-12-09T01:31:33.534Z,15.65
2022-12-09T01:34:02.832Z,16.30
2022-12-09T01:36:31.130Z,15.55
2022-12-09T01:39:00.238Z,17.15
2022-12-09T01:41:27.469Z,15.23
2022-12-09T01:44:20.769Z,18.15
2022-12-09T01:46:48.473Z,17.58
2022-12-09T01:49:34.562Z,15.80
2022-12-09T01:52:20.297Z,16.63
2022-12-09T01:54:49.032Z,16.73
2022-12-09T01:57:16.516Z,15.00
2022-12-09T01:59:44.320Z,16.98
2022-12-09T02:02:16.214Z,16.90
2022-12-09T02:04:46.179Z,15.70
2022-12-09T02:07:14.569Z,15.38
2022-12-09T02:09:43.103Z,17.10
2022-12-09T02:12:16.812Z,15.32
2022-12-09T02:15:02.131Z,18.08
2022-12-09T02:17:39.328Z,19.23
2022-12-09T02:20:23.680Z,18.00
2022-12-09T02:23:08.386Z,16.27
2022-12-09T02:25:48.739Z,16.10
2022-12-09T02:28:36.188Z,15.32
2022-12-09T02:31:21.504Z,14.23
2022-12-09T02:34:04.955Z,16.38
2022-12-09T02:36:44.222Z,19.83
2022-12-09T02:39:11.323Z,18.95
2022-12-09T02:41:41.838Z,14.50
2022-12-09T02:44:17.257Z,14.48
2022-12-09T02:46:46.644Z,13.93
2022-12-09T02:49:15.327Z,14.05
2022-12-09T02:51:44.231Z,13.65
2022-12-09T02:54:17.207Z,15.52
2022-12-09T02:56:53.503Z,14.73
2022-12-09T02:59:22.204Z,14.60
2022-12-09T03:02:12.480Z,14.45
2022-12-09T03:04:42.251Z,13.63
2022-12-09T03:07:26.003Z,14.23
2022-12-09T03:10:06.525Z,14.60
2022-12-09T03:12:35.601Z,13.32
2022-12-09T03:15:06.007Z,13.85
2022-12-09T03:17:36.250Z,12.55
2022-12-09T03:20:16.830Z,15.30
2022-12-09T03:22:46.391Z,16.88
2022-12-09T03:25:19.484Z,13.15
2022-12-09T03:27:57.169Z,15.70
2022-12-09T03:30:24.086Z,16.05
2022-12-09T03:32:52.521Z,14.60
2022-12-09T03:35:23.761Z,14.25
2022-12-09T03:37:52.453Z,14.93
2022-12-09T03:40:27.068Z,17.38
2022-12-09T03:43:13.341Z,15.30
2022-12-09T03:45:41.014Z,17.75
2022-12-09T03:48:09.143Z,19.05
2022-12-09T03:50:58.894Z,20.27
2022-12-09T03:53:41.567Z,18.08
2022-12-09T03:56:18.731Z,17.48
2022-12-09T03:58:48.152Z,18.92
2022-12-09T04:01:16.386Z,19.50
2022-12-09T04:03:47.874Z,19.30
2022-12-09T04:06:15.183Z,17.67
2022-12-09T04:08:43.453Z,20.63
2022-12-09T04:11:11.412Z,20.65
2022-12-09T04:13:38.309Z,17.85
2022-12-09T04:16:05.553Z,22.73
2022-12-09T04:18:32.889Z,22.88
2022-12-09T04:21:00.248Z,20.90
2022-12-09T04:23:27.324Z,19.50
2022-12-09T04:25:54.277Z,21.00
2022-12-09T04:28:22.296Z,21.15
2022-12-09T04:30:49.154Z,24.67
2022-12-09T04:33:16.056Z,21.85
2022-12-09T04:35:43.078Z,22.95
2022-12-09T04:38:10.172Z,21.85
2022-12-09T04:40:38.518Z,24.17
2022-12-09T04:43:05.306Z,24.83
2022-12-09T04:45:32.445Z,22.38
2022-12-09T04:47:59.672Z,23.30
2022-12-09T04:50:27.268Z,22.15
2022-12-09T04:52:54.075Z,21.25
2022-12-09T04:55:21.103Z,23.13
2022-12-09T04:57:48.121Z,21.02
2022-12-09T05:00:15.974Z,23.75
2022-12-09T05:02:43.590Z,23.02
2022-12-09T05:05:10.742Z,21.27
2022-12-09T05:07:38.032Z,23.40
2022-12-09T05:10:06.189Z,22.80
2022-12-09T05:12:33.943Z,22.23
2022-12-09T05:15:01.400Z,21.00
2022-12-09T05:17:28.421Z,21.85
2022-12-09T05:19:55.853Z,24.63
2022-12-09T05:22:22.842Z,21.50
2022-12-09T05:24:49.808Z,20.38
2022-12-09T05:27:16.769Z,22.27
2022-12-09T05:29:43.851Z,16.77
2022-12-09T05:32:10.679Z,16.98
2022-12-09T05:34:38.329Z,16.58
2022-12-09T05:37:05.503Z,18.25
2022-12-09T05:39:32.719Z,18.17
2022-12-09T05:41:59.947Z,19.65
2022-12-09T05:44:26.830Z,18.38
2022-12-09T05:46:53.798Z,18.13
2022-12-09T05:49:21.208Z,21.17
2022-12-09T05:51:48.512Z,21.35
2022-12-09T05:54:15.733Z,21.08
2022-12-09T05:56:47.867Z,20.65
2022-12-09T05:59:15.716Z,22.65
2022-12-09T06:01:42.740Z,21.83
2022-12-09T06:04:10.229Z,22.30
2022-12-09T06:06:37.254Z,20.70
2022-12-09T06:09:08.665Z,19.92
2022-12-09T06:11:36.195Z,22.35
2022-12-09T06:14:03.611Z,23.70
2022-12-09T06:16:30.790Z,22.00
2022-12-09T06:18:58.554Z,20.50
2022-12-09T06:21:25.707Z,22.08
2022-12-09T06:23:53.681Z,21.13
2022-12-09T06:26:26.350Z,21.88
2022-12-09T06:28:54.883Z,20.35
2022-12-09T06:31:22.214Z,18.45
2022-12-09T06:33:58.316Z,20.23
2022-12-09T06:36:28.285Z,20.13
2022-12-09T06:38:56.915Z,19.98
2022-12-09T06:41:25.353Z,20.45
2022-12-09T06:43:52.751Z,19.98
2022-12-09T06:46:25.459Z,23.38
2022-12-09T06:48:54.837Z,22.27
2022-12-09T06:51:23.627Z,23.00
2022-12-09T06:53:50.905Z,21.55
2022-12-09T06:56:17.896Z,26.40
2022-12-09T06:58:46.565Z,22.20
2022-12-09T07:01:17.247Z,20.63
2022-12-09T07:03:46.808Z,22.48
2022-12-09T07:06:31.016Z,24.70
2022-12-09T07:09:01.001Z,19.85
2022-12-09T07:11:29.065Z,23.17
2022-12-09T07:13:56.297Z,20.50
2022-12-09T07:16:23.853Z,22.35
2022-12-09T07:18:51.205Z,23.27
2022-12-09T07:21:20.252Z,24.27
2022-12-09T07:23:48.535Z,27.92
2022-12-09T07:26:16.955Z,30.33
2022-12-09T07:28:47.325Z,33.22
2022-12-09T07:31:28.567Z,33.90
2022-12-09T07:33:58.944Z,34.38
2022-12-09T07:36:28.972Z,32.50
2022-12-09T07:38:57.193Z,28.88
2022-12-09T07:41:24.544Z,32.90
2022-12-09T07:43:51.764Z,37.58
2022-12-09T07:46:20.803Z,34.42
2022-12-09T07:48:48.574Z,37.72
2022-12-09T07:51:16.996Z,38.35
2022-12-09T07:53:44.540Z,38.25
2022-12-09T07:56:14.788Z,41.00
2022-12-09T07:58:42.443Z,40.45
2022-12-09T08:01:15.555Z,36.67
2022-12-09T08:03:43.506Z,43.10
2022-12-09T08:06:16.100Z,39.83
2022-12-09T08:08:44.273Z,40.75
2022-12-09T08:11:20.852Z,40.60
2022-12-09T08:13:48.557Z,41.60
2022-12-09T08:16:18.470Z,42.88
2022-12-09T08:18:46.352Z,41.97
2022-12-09T08:21:25.608Z,45.08
2022-12-09T08:23:54.408Z,45.47
2022-12-09T08:26:23.289Z,43.90
2022-12-09T08:28:51.103Z,45.55
2022-12-09T08:31:28.666Z,48.20
2022-12-09T08:33:55.934Z,44.55
2022-12-09T08:36:26.460Z,48.92
2022-12-09T08:38:53.970Z,46.35
2022-12-09T08:41:35.342Z,46.08
2022-12-09T08:44:12.153Z,45.13
2022-12-09T08:46:41.155Z,44.42
2022-12-09T08:49:09.020Z,40.67
2022-12-09T08:51:36.575Z,42.42
2022-12-09T08:54:04.425Z,47.47
2022-12-09T08:56:32.018Z,46.15
2022-12-09T08:58:58.966Z,52.08
2022-12-09T09:01:32.315Z,55.03
2022-12-09T09:04:07.852Z,54.22
2022-12-09T09:06:36.668Z,53.15
2022-12-09T09:09:06.088Z,58.83
2022-12-09T09:11:34.228Z,53.72
2022-12-09T09:14:04.129Z,57.40
2022-12-09T09:16:31.404Z,53.75
2022-12-09T09:18:58.354Z,53.17
2022-12-09T09:21:29.181Z,57.33
2022-12-09T09:23:56.425Z,60.85
2022-12-09T09:26:26.066Z,57.78
2022-12-09T09:28:55.100Z,61.50
2022-12-09T09:31:24.064Z,52.97
2022-12-09T09:33:51.790Z,60.05
2022-12-09T09:36:23.638Z,54.60
2022-12-09T09:38:53.259Z,55.15
2022-12-09T09:41:49.422Z,53.92
2022-12-09T09:44:25.626Z,47.70
2022-12-09T09:46:54.523Z,52.53
2022-12-09T09:50:01.617Z,54.63
2022-12-09T09:52:31.054Z,54.92
2022-12-09T09:54:58.649Z,56.65
2022-12-09T09:57:40.411Z,63.60
2022-12-09T10:00:38.813Z,59.72
2022-12-09T10:03:47.537Z,60.00
2022-12-09T10:06:52.392Z,56.67
2022-12-09T10:09:42.563Z,54.88
2022-12-09T10:12:26.455Z,55.63
2022-12-09T10:15:13.584Z,59.53
2022-12-09T10:17:57.939Z,64.53
2022-12-09T10:20:27.658Z,58.65
2022-12-09T10:23:06.893Z,49.20
2022-12-09T10:25:38.403Z,55.13
2022-12-09T10:28:27.713Z,53.53
2022-12-09T10:30:56.409Z,53.08
2022-12-09T10:33:32.409Z,49.90
2022-12-09T10:36:00.078Z,48.53
2022-12-09T10:38:29.560Z,47.63
2022-12-09T10:41:02.818Z,41.30
2022-12-09T10:43:36.226Z,44.35
2022-12-09T10:46:18.028Z,42.17
2022-12-09T10:48:46.351Z,42.17
2022-12-09T10:51:18.655Z,39.65
2022-12-09T10:53:54.325Z,44.83
2022-12-09T10:57:00.827Z,39.63
2022-12-09T10:59:30.021Z,38.28
2022-12-09T11:01:59.816Z,34.67
2022-12-09T11:04:37.214Z,34.35
2022-12-09T11:07:07.707Z,32.85
2022-12-09T11:09:41.653Z,28.73
2022-12-09T11:12:17.814Z,35.75
2022-12-09T11:14:53.326Z,30.10
2022-12-09T11:17:26.778Z,35.08
2022-12-09T11:20:15.707Z,32.30
2022-12-09T11:22:45.014Z,32.60
2022-12-09T11:25:12.249Z,39.38
2022-12-09T11:27:42.759Z,36.80
2022-12-09T11:30:16.562Z,34.85
2022-12-09T11:33:08.685Z,35.00
2022-12-09T11:35:44.970Z,35.97
2022-12-09T11:38:39.912Z,31.85
2022-12-09T11:41:09.682Z,33.80
2022-12-09T11:43:43.524Z,28.48
2022-12-09T11:46:12.953Z,28.88
2022-12-09T11:48:43.976Z,28.02
2022-12-09T11:51:36.081Z,29.52
2022-12-09T11:54:11.667Z,31.65
2022-12-09T11:56:40.674Z,31.45
2022-12-09T11:59:13.086Z,31.00
2022-12-09T12:01:42.895Z,28.67
2022-12-09T12:04:14.005Z,27.52
2022-12-09T12:06:50.661Z,32.75
2022-12-09T12:09:24.943Z,32.00
2022-12-09T12:12:13.716Z,32.28
2022-12-09T12:14:43.431Z,33.88
2022-12-09T12:17:26.777Z,36.72
2022-12-09T12:19:56.251Z,37.65
2022-12-09T12:22:36.934Z,32.65
2022-12-09T12:25:20.787Z,30.15
2022-12-09T12:28:05.598Z,26.77
2022-12-09T12:30:48.034Z,31.15
2022-12-09T12:34:00.296Z,32.28
2022-12-09T12:36:50.265Z,28.27
2022-12-09T12:39:35.861Z,30.25
2022-12-09T12:43:03.977Z,28.13
2022-12-09T12:45:58.128Z,25.65
2022-12-09T12:48:38.238Z,29.77
2022-12-09T12:51:43.862Z,28.27
2022-12-09T12:54:46.503Z,27.30
2022-12-09T12:57:52.381Z,27.35
2022-12-09T13:00:22.114Z,30.13
2022-12-09T13:03:09.572Z,30.90
2022-12-09T13:05:41.194Z,27.30
2022-12-09T13:08:18.671Z,28.08
2022-12-09T13:10:52.794Z,25.30
2022-12-09T13:13:37.452Z,27.25
2022-12-09T13:16:31.025Z,25.27
2022-12-09T13:19:17.821Z,24.77
2022-12-09T13:21:48.164Z,26.10
2022-12-09T13:24:37.778Z,28.58
2022-12-09T13:27:29.915Z,27.98
2022-12-09T13:29:59.857Z,27.37
2022-12-09T13:32:35.380Z,29.40
2022-12-09T13:35:27.224Z,29.20
2022-12-09T13:37:54.797Z,29.40
2022-12-09T13:40:21.509Z,25.95
2022-12-09T13:42:58.379Z,23.98
2022-12-09T13:45:33.835Z,22.63
2022-12-09T13:48:07.275Z,24.20
2022-12-09T13:50:57.613Z,23.63
2022-12-09T13:53:29.360Z,30.27
2022-12-09T13:56:17.678Z,27.13
2022-12-09T13:59:08.025Z,22.35
2022-12-09T14:01:54.712Z,27.15
2022-12-09T14:04:31.751Z,27.48
2022-12-09T14:07:16.049Z,26.42
2022-12-09T14:09:49.154Z,23.75
2022-12-09T14:12:32.617Z,25.10
2022-12-09T14:15:21.911Z,25.95
2022-12-09T14:17:48.612Z,22.33
2022-12-09T14:20:29.874Z,21.17
2022-12-09T14:23:09.647Z,28.70
2022-12-09T14:25:36.463Z,30.27
2022-12-09T14:28:09.651Z,27.45
2022-12-09T14:30:51.872Z,26.02
2022-12-09T14:33:40.763Z,24.27
2022-12-09T14:36:25.454Z,28.73
2022-12-09T14:39:24.685Z,26.52
2022-12-09T14:41:58.551Z,29.40
2022-12-09T14:44:52.695Z,26.30
2022-12-09T14:47:24.896Z,28.63
2022-12-09T14:49:53.885Z,28.73
2022-12-09T14:52:32.805Z,27.38
2022-12-09T14:55:02.812Z,27.67
2022-12-09T14:57:42.805Z,27.05
2022-12-09T15:00:27.603Z,25.55
2022-12-09T15:03:30.192Z,25.50
2022-12-09T15:05:52.725Z,23.15
2022-12-09T15:08:33.000Z,23.83
2022-12-09T15:11:04.472Z,21.83
2022-12-09T15:13:34.397Z,23.85
2022-12-09T15:16:01.600Z,22.85
2022-12-09T15:18:30.766Z,20.23
2022-12-09T15:21:01.250Z,27.95
2022-12-09T15:23:40.088Z,24.15
2022-12-09T15:26:36.258Z,24.17
2022-12-09T15:29:05.473Z,20.63
2022-12-09T15:31:34.296Z,26.17
2022-12-09T15:34:14.258Z,23.92
2022-12-09T15:36:51.018Z,24.45
2022-12-09T15:39:37.568Z,21.60
2022-12-09T15:42:10.743Z,23.52
2022-12-09T15:44:56.129Z,25.20
2022-12-09T15:47:45.535Z,20.50
2022-12-09T15:50:26.683Z,21.52
2022-12-09T15:53:02.713Z,18.98
2022-12-09T15:55:50.435Z,22.40
2022-12-09T15:58:24.510Z,26.90
2022-12-09T16:00:52.877Z,21.00
2022-12-09T16:03:28.385Z,20.23
2022-12-09T16:05:58.333Z,24.63
2022-12-09T16:08:33.878Z,19.40
2022-12-09T16:11:00.698Z,19.30
2022-12-09T16:13:27.623Z,19.05
2022-12-09T16:16:00.464Z,19.42
2022-12-09T16:18:46.505Z,21.45
2022-12-09T16:21:25.063Z,22.45
2022-12-09T16:23:54.602Z,20.55
2022-12-09T16:26:32.063Z,22.02
2022-12-09T16:29:02.574Z,22.17
2022-12-09T16:31:30.274Z,24.75
2022-12-09T16:33:57.790Z,22.42
2022-12-09T16:36:31.882Z,23.42
2022-12-09T16:39:07.759Z,23.88
2022-12-09T16:42:02.941Z,22.08
2022-12-09T16:44:35.492Z,21.50
2022-12-09T16:47:26.431Z,23.08
2022-12-09T16:49:53.163Z,20.00
2022-12-09T16:52:24.549Z,25.17
2022-12-09T16:54:51.972Z,21.77
2022-12-09T16:57:20.326Z,23.13
2022-12-09T16:59:47.256Z,22.75
2022-12-09T17:02:36.195Z,22.25
2022-12-09T17:05:04.120Z,25.70
2022-12-09T17:07:30.734Z,26.80
2022-12-09T17:09:57.529Z,22.42
2022-12-09T17:12:24.296Z,21.33
2022-12-09T17:14:51.357Z,24.25
2022-12-09T17:17:18.338Z,23.70
2022-12-09T17:19:45.071Z,23.77
2022-12-09T17:22:11.740Z,28.40
2022-12-09T17:24:38.639Z,24.77
2022-12-09T17:27:05.532Z,25.13
2022-12-09T17:29:32.224Z,28.63
2022-12-09T17:31:58.949Z,28.05
2022-12-09T17:34:25.707Z,27.30
2022-12-09T17:36:52.423Z,29.55
2022-12-09T17:39:20.264Z,31.80
2022-12-09T17:41:48.594Z,26.88
2022-12-09T17:44:16.098Z,27.10
2022-12-09T17:46:42.937Z,27.58
2022-12-09T17:49:09.653Z,25.80
2022-12-09T17:51:37.097Z,23.38
2022-12-09T17:54:04.753Z,24.08
2022-12-09T17:56:31.690Z,24.25
2022-12-09T17:59:02.701Z,23.52
2022-12-09T18:01:30.406Z,27.67
2022-12-09T18:04:04.379Z,26.27
2022-12-09T18:06:34.208Z,24.50
2022-12-09T18:09:05.889Z,24.30
2022-12-09T18:11:32.569Z,25.08
2022-12-09T18:13:59.760Z,27.60
2022-12-09T18:16:26.861Z,25.83
2022-12-09T18:18:53.734Z,30.55
2022-12-09T18:21:20.901Z,28.13
2022-12-09T18:23:48.630Z,28.23
2022-12-09T18:26:17.437Z,25.20
2022-12-09T18:28:44.413Z,28.15
2022-12-09T18:31:14.579Z,25.48
2022-12-09T18:33:42.208Z,31.45
2022-12-09T18:36:14.619Z,26.27
2022-12-09T18:38:42.149Z,33.72
2022-12-09T18:41:17.717Z,25.35
2022-12-09T18:43:46.420Z,26.15
2022-12-09T18:46:18.441Z,27.33
2022-12-09T18:48:49.718Z,32.53
2022-12-09T18:51:18.613Z,28.50
2022-12-09T18:53:45.987Z,27.45
2022-12-09T18:56:13.660Z,32.40
2022-12-09T18:59:04.914Z,29.40
2022-12-09T19:01:29.778Z,31.60
2022-12-09T19:03:59.900Z,33.70
2022-12-09T19:06:28.773Z,32.00
2022-12-09T19:08:58.743Z,30.30
2022-12-09T19:11:28.135Z,38.85
2022-12-09T19:13:55.754Z,31.27
2022-12-09T19:16:23.913Z,36.05
2022-12-09T19:18:51.042Z,29.98
2022-12-09T19:21:20.038Z,34.17
2022-12-09T19:23:47.821Z,35.97
2022-12-09T19:26:20.374Z,29.17
2022-12-09T19:28:53.015Z,38.83
2022-12-09T19:33:48.690Z,29.38
2022-12-09T19:36:15.566Z,36.65
2022-12-09T19:38:42.451Z,28.98
2022-12-09T19:41:09.073Z,32.22
2022-12-09T19:43:36.016Z,29.08
2022-12-09T19:46:07.834Z,29.73
2022-12-09T19:48:36.394Z,27.33
2022-12-09T19:51:05.236Z,29.90
2022-12-09T19:53:33.027Z,27.25
2022-12-09T19:56:08.404Z,28.13
2022-12-09T19:58:36.822Z,29.58
2022-12-09T20:01:22.754Z,30.67
2022-12-09T20:03:51.660Z,27.17
2022-12-09T20:06:21.230Z,27.55
2022-12-09T20:08:48.892Z,26.58
2022-12-09T20:11:17.946Z,29.60
2022-12-09T20:13:45.545Z,27.27
2022-12-09T20:16:15.041Z,29.95
2022-12-09T20:18:42.512Z,28.98
2022-12-09T20:21:11.963Z,26.27
2022-12-09T20:23:40.502Z,28.02
2022-12-09T20:26:09.425Z,28.25
2022-12-09T20:28:37.861Z,26.90
2022-12-09T20:31:17.454Z,29.48
2022-12-09T20:33:44.385Z,29.90
2022-12-09T20:36:23.849Z,35.00
2022-12-09T20:38:59.071Z,28.75
2022-12-09T20:41:27.071Z,25.50
2022-12-09T20:43:56.554Z,27.42
2022-12-09T20:46:25.989Z,26.13
2022-12-09T20:48:53.121Z,28.02
2022-12-09T20:51:22.954Z,24.77
2022-12-09T20:53:50.546Z,23.77
2022-12-09T20:56:18.591Z,26.23
2022-12-09T20:58:46.967Z,26.27
2022-12-09T21:01:17.513Z,26.80
2022-12-09T21:03:44.620Z,24.40
2022-12-09T21:06:13.076Z,24.77
2022-12-09T21:08:39.809Z,24.80
2022-12-09T21:11:17.613Z,24.55
2022-12-09T21:13:47.606Z,27.00
2022-12-09T21:16:25.248Z,25.13
2022-12-09T21:18:54.624Z,25.05
2022-12-09T21:21:22.906Z,26.38
2022-12-09T21:23:50.540Z,26.08
2022-12-09T21:26:18.725Z,22.98
2022-12-09T21:28:46.965Z,21.95
2022-12-09T21:31:17.977Z,26.15
2022-12-09T21:33:46.122Z,24.50
2022-12-09T21:36:19.253Z,25.75
2022-12-09T21:38:46.087Z,23.73
2022-12-09T21:41:15.499Z,21.65
2022-12-09T21:43:42.844Z,22.95
2022-12-09T21:46:15.807Z,24.08
2022-12-09T21:48:42.509Z,25.05
2022-12-09T21:51:11.043Z,26.33
2022-12-09T21:53:38.663Z,24.48
2022-12-09T21:56:20.223Z,25.70
2022-12-09T21:58:48.329Z,24.10
2022-12-09T22:01:16.561Z,24.60
2022-12-09T22:03:44.122Z,24.45
2022-12-09T22:06:11.732Z,22.55
2022-12-09T22:08:39.628Z,22.83
2022-12-09T22:11:11.394Z,27.50
2022-12-09T22:13:40.001Z,22.50
2022-12-09T22:16:13.500Z,23.77
2022-12-09T22:18:40.900Z,26.45
2022-12-09T22:21:27.004Z,26.20
2022-12-09T22:23:55.341Z,24.13
2022-12-09T22:26:23.088Z,24.98
2022-12-09T22:28:50.177Z,27.17
2022-12-09T22:31:22.641Z,27.40
2022-12-09T22:33:51.592Z,27.05
2022-12-09T22:36:19.082Z,26.65
2022-12-09T22:38:46.455Z,26.67
2022-12-09T22:41:19.002Z,25.88
2022-12-09T22:43:48.171Z,26.55
2022-12-09T22:46:24.450Z,28.45
2022-12-09T22:48:51.756Z,25.05
2022-12-09T22:51:26.533Z,25.95
2022-12-09T22:53:55.524Z,28.85
2022-12-09T22:56:23.397Z,27.88
2022-12-09T22:58:50.165Z,27.38
2022-12-09T23:01:23.263Z,27.90
2022-12-09T23:03:50.199Z,27.08
2022-12-09T23:06:16.927Z,25.40
2022-12-09T23:08:44.733Z,31.48
2022-12-09T23:11:14.793Z,27.98
2022-12-09T23:13:41.742Z,29.83
2022-12-09T23:16:12.430Z,27.80
2022-12-09T23:18:39.809Z,27.00
2022-12-09T23:21:22.062Z,26.02
2022-12-09T23:23:52.132Z,25.55
2022-12-09T23:26:20.525Z,27.67
2022-12-09T23:28:50.797Z,28.80
2022-12-09T23:31:21.676Z,25.67
2022-12-09T23:33:49.770Z,28.30
2022-12-09T23:36:25.526Z,26.25
2022-12-09T23:38:53.425Z,25.02
2022-12-09T23:41:22.291Z,26.10
2022-12-09T23:43:49.771Z,30.05
2022-12-09T23:46:19.703Z,30.85
2022-12-09T23:48:48.234Z,30.20
2022-12-09T23:51:17.388Z,27.73
2022-12-09T23:53:45.279Z,29.85
2022-12-09T23:56:23.250Z,32.58
2022-12-09T23:58:57.746Z,24.75
